Meteorología y climatología de Navarra
Datos de la estación - Meteo Navarra

Estación de Doneztebe-Santesteban GN

Altitud 125 m.


Datos desde el 26/03/2020 hasta el 27/03/2020 en horario solar
Los datos son PROVISIONALES

Anterior Página 1 de 1 Siguiente Descargar: Formato para Excel 2000 o superior   Formato csv   Formato para OpenOffice Calc
Fecha Temperatura Humedad relativa Radiación global Insolación Precipitación Vel. viento 10 m Vel. viento 10 m Dir. viento 10 m
ºC % W/m² s l/m² m/s km/h º
26/03/2020 0:00 7.0 79 0.0 0 0.0 0.1 0.4 215
26/03/2020 0:10 7.0 79 0.0 0 0.0 0.0 0.1 180
26/03/2020 0:20 7.2 78 0.0 0 0.0 0.9 3.1 145
26/03/2020 0:30 7.2 78 0.0 0 0.0 0.4 1.4 284
26/03/2020 0:40 7.2 77 0.0 0 0.0 0.3 1.0 229
26/03/2020 0:50 7.3 80 0.0 0 0.0 0.3 1.1 147
26/03/2020 1:00 7.0 79 0.0 0 0.0 0.1 0.5 304
26/03/2020 1:10 7.1 78 0.0 0 0.0 0.7 2.5 265
26/03/2020 1:20 7.1 78 0.0 0 0.0 0.4 1.5 330
26/03/2020 1:30 7.1 80 0.0 0 0.0 0.1 0.3 327
26/03/2020 1:40 7.1 80 0.0 0 0.0 0.0 0.0 0
26/03/2020 1:50 7.1 79 0.0 0 0.0 0.6 2.1 283
26/03/2020 2:00 7.1 80 0.0 0 0.0 0.5 1.9 272
26/03/2020 2:10 7.1 81 0.0 0 0.0 0.8 2.8 323
26/03/2020 2:20 6.9 82 0.0 0 0.0 0.1 0.3 2
26/03/2020 2:30 6.8 83 0.0 0 0.0 0.1 0.3 79
26/03/2020 2:40 6.7 85 0.0 0 0.0 0.9 3.2 146
26/03/2020 2:50 6.8 84 0.0 0 0.0 0.5 1.8 148
26/03/2020 3:00 6.9 84 0.0 0 0.0 0.6 2.3 145
26/03/2020 3:10 7.0 83 0.0 0 0.0 0.7 2.7 112
26/03/2020 3:20 7.1 81 0.0 0 0.0 1.4 5.1 130
26/03/2020 3:30 7.2 81 0.0 0 0.0 1.4 4.9 122
26/03/2020 3:40 7.2 81 0.0 0 0.0 1.6 5.7 136
26/03/2020 3:50 7.4 79 0.0 0 0.0 1.6 5.9 122
26/03/2020 4:00 7.5 80 0.0 0 0.0 1.0 3.6 111
26/03/2020 4:10 7.7 78 0.0 0 0.0 1.4 4.9 151
26/03/2020 4:20 7.9 77 0.0 0 0.0 1.7 6.0 126
26/03/2020 4:30 7.8 79 0.0 0 0.0 0.8 2.7 156
26/03/2020 4:40 7.7 79 0.0 0 0.0 1.7 6.2 128
26/03/2020 4:50 7.8 78 0.0 0 0.0 1.3 4.6 141
26/03/2020 5:00 8.6 72 0.0 0 0.0 1.2 4.2 163
26/03/2020 5:10 9.7 63 0.0 0 0.0 1.8 6.3 220
26/03/2020 5:20 9.9 60 0.0 0 0.0 0.9 3.1 105
26/03/2020 5:30 10.2 57 0.0 0 0.0 1.8 6.4 161
26/03/2020 5:40 10.1 57 0.0 0 0.0 1.3 4.8 273
26/03/2020 5:50 10.1 57 0.0 0 0.0 1.3 4.7 130
26/03/2020 6:00 10.0 58 0.0 0 0.0 0.9 3.1 245
26/03/2020 6:10 9.9 57 0.0 0 0.0 0.9 3.2 73
26/03/2020 6:20 9.8 56 0.0 0 0.0 1.6 5.8 65
26/03/2020 6:30 9.8 56 17.0 0 0.0 1.4 4.9 299
26/03/2020 6:40 9.8 55 28.4 0 0.0 1.5 5.5 15
26/03/2020 6:50 9.8 56 40.4 0 0.0 2.5 8.9 33
26/03/2020 7:00 9.8 57 57.5 8 0.0 2.0 7.0 31
26/03/2020 7:10 9.9 57 88.7 148 0.0 1.8 6.6 342
26/03/2020 7:20 10.0 57 112.7 154 0.0 1.6 5.7 315
26/03/2020 7:30 10.1 56 101.0 168 0.0 2.4 8.5 360
26/03/2020 7:40 10.1 54 153.3 170 0.0 1.9 6.7 337
26/03/2020 7:50 10.3 53 183.0 244 0.0 1.9 6.9 20
26/03/2020 8:00 10.2 52 114.6 0 0.0 1.9 6.7 32
26/03/2020 8:10 9.9 56 92.1 0 0.0 3.0 10.9 5
26/03/2020 8:20 9.7 59 177.3 160 0.0 1.9 6.9 347
26/03/2020 8:30 9.9 58 212.9 182 0.0 1.7 6.3 345
26/03/2020 8:40 9.5 59 119.7 0 0.0 3.1 11.3 348
26/03/2020 8:50 9.4 58 183.2 60 0.0 1.7 6.2 359
26/03/2020 9:00 9.5 57 254.3 148 0.0 1.9 6.8 311
26/03/2020 9:10 9.6 55 318.5 254 0.0 1.8 6.4 5
26/03/2020 9:20 9.8 55 178.6 12 0.0 2.3 8.1 333
26/03/2020 9:30 9.7 54 371.4 260 0.0 2.1 7.6 1
26/03/2020 9:40 10.0 53 327.9 132 0.0 2.8 10.1 3
26/03/2020 9:50 10.1 52 366.7 200 0.0 2.0 7.3 10
26/03/2020 10:00 10.3 51 746.8 574 0.0 2.8 10.2 12
26/03/2020 10:10 10.2 51 499.0 316 0.0 3.7 13.4 23
26/03/2020 10:20 10.4 49 622.4 448 0.0 3.2 11.4 359
26/03/2020 10:30 10.5 47 675.1 478 0.0 2.6 9.3 353
26/03/2020 10:40 10.6 43 644.8 468 0.0 3.1 11.3 17
26/03/2020 10:50 10.6 42 619.7 456 0.0 2.3 8.2 355
26/03/2020 11:00 10.9 41 778.8 596 0.0 1.6 5.8 7
26/03/2020 11:10 11.1 39 679.3 496 0.0 1.7 6.2 327
26/03/2020 11:20 11.2 38 753.6 556 0.0 2.6 9.2 352
26/03/2020 11:30 11.4 37 810.0 600 0.0 2.8 10.0 3
26/03/2020 11:40 11.6 36 811.0 600 0.0 2.5 9.1 335
26/03/2020 11:50 11.8 35 816.0 600 0.0 2.4 8.6 345
26/03/2020 12:00 11.5 35 824.0 600 0.0 3.1 11.2 359
26/03/2020 12:10 11.6 35 824.0 600 0.0 1.6 5.7 88
26/03/2020 12:20 12.1 37 812.0 600 0.0 2.2 8.0 350
26/03/2020 12:30 12.0 37 825.0 600 0.0 2.6 9.2 10
26/03/2020 12:40 12.0 37 801.0 600 0.0 3.2 11.6 331
26/03/2020 12:50 12.0 37 816.0 600 0.0 2.5 9.1 4
26/03/2020 13:00 11.9 34 810.0 600 0.0 3.3 11.7 4
26/03/2020 13:10 12.1 31 797.5 600 0.0 3.7 13.2 310
26/03/2020 13:20 12.0 34 791.0 600 0.0 4.1 14.8 324
26/03/2020 13:30 11.7 33 767.9 600 0.0 3.2 11.6 332
26/03/2020 13:40 11.8 34 766.6 600 0.0 2.6 9.4 356
26/03/2020 13:50 11.6 33 744.4 600 0.0 3.6 12.8 8
26/03/2020 14:00 11.6 32 730.1 600 0.0 2.7 9.8 334
26/03/2020 14:10 11.8 32 709.4 600 0.0 2.5 9.1 334
26/03/2020 14:20 11.6 32 697.1 600 0.0 3.0 10.9 355
26/03/2020 14:30 11.6 33 682.6 600 0.0 3.0 10.7 343
26/03/2020 14:40 11.5 33 598.3 540 0.0 3.6 13.1 341
26/03/2020 14:50 11.6 34 628.6 600 0.0 2.7 9.6 326
26/03/2020 15:00 11.4 34 627.7 600 0.0 3.5 12.7 340
26/03/2020 15:10 11.4 35 584.6 588 0.0 2.9 10.4 350
26/03/2020 15:20 10.9 37 314.2 222 0.0 2.1 7.6 356
26/03/2020 15:30 10.6 39 308.5 262 0.0 2.7 9.5 343
26/03/2020 15:40 10.6 40 361.7 330 0.0 3.6 13.1 297
26/03/2020 15:50 10.8 38 364.8 348 0.0 4.1 14.7 288
26/03/2020 16:00 10.3 39 270.6 250 0.0 3.5 12.5 296
26/03/2020 16:10 10.5 39 326.4 318 0.0 3.1 11.2 300
26/03/2020 16:20 11.0 39 430.6 600 0.0 2.1 7.5 297
26/03/2020 16:30 11.2 38 372.0 600 0.0 2.3 8.4 349
26/03/2020 16:40 10.9 40 307.6 546 0.0 2.3 8.2 337
26/03/2020 16:50 10.7 41 265.3 586 0.0 2.4 8.5 342
26/03/2020 17:00 10.1 41 111.7 130 0.0 1.9 6.9 334
26/03/2020 17:10 9.6 43 78.8 46 0.0 1.6 5.7 319
26/03/2020 17:20 9.3 44 96.2 268 0.0 2.3 8.4 314
26/03/2020 17:30 9.4 41 135.3 600 0.0 2.3 8.2 297
26/03/2020 17:40 9.4 41 111.8 600 0.0 2.7 9.8 295
26/03/2020 17:50 9.3 41 50.6 134 0.0 2.5 9.0 304
26/03/2020 18:00 8.9 43 26.4 0 0.0 1.6 5.8 290
26/03/2020 18:10 8.7 43 15.1 0 0.0 2.2 7.8 305
26/03/2020 18:20 8.2 46 0.0 0 0.0 2.1 7.4 319
26/03/2020 18:30 8.3 45 0.0 0 0.0 2.4 8.6 320
26/03/2020 18:40 7.8 47 0.0 0 0.0 1.5 5.3 319
26/03/2020 18:50 7.3 52 0.0 0 0.0 0.7 2.3 250
26/03/2020 19:00 6.7 56 0.0 0 0.0 0.1 0.3 200
26/03/2020 19:10 6.2 63 0.0 0 0.0 0.4 1.5 132
26/03/2020 19:20 5.8 67 0.0 0 0.0 0.3 1.2 130
26/03/2020 19:30 5.8 66 0.0 0 0.0 0.3 1.2 305
26/03/2020 19:40 5.4 67 0.0 0 0.0 0.3 1.0 321
26/03/2020 19:50 5.3 71 0.0 0 0.0 0.3 1.2 263
26/03/2020 20:00 4.9 70 0.0 0 0.0 0.0 0.0 175
26/03/2020 20:10 4.6 72 0.0 0 0.0 0.2 0.6 119
26/03/2020 20:20 4.2 74 0.0 0 0.0 0.0 0.1 213
26/03/2020 20:30 3.9 74 0.0 0 0.0 0.0 0.0 0
26/03/2020 20:40 3.6 79 0.0 0 0.0 0.1 0.3 285
26/03/2020 20:50 3.4 78 0.0 0 0.0 0.1 0.3 266
26/03/2020 21:00 3.4 80 0.0 0 0.0 0.5 1.8 120
26/03/2020 21:10 3.4 81 0.0 0 0.0 0.1 0.3 245
26/03/2020 21:20 3.7 80 0.0 0 0.0 0.0 0.1 229
26/03/2020 21:30 3.9 81 0.0 0 0.0 0.2 0.6 292
26/03/2020 21:40 3.8 79 0.0 0 0.0 0.1 0.3 274
26/03/2020 21:50 3.5 81 0.0 0 0.0 0.2 0.5 264
26/03/2020 22:00 3.3 83 0.0 0 0.0 0.4 1.4 133
26/03/2020 22:10 3.0 84 0.0 0 0.0 0.3 1.2 233
26/03/2020 22:20 2.7 82 0.0 0 0.0 0.2 0.8 245
26/03/2020 22:30 2.4 86 0.0 0 0.0 0.4 1.4 130
26/03/2020 22:40 2.4 87 0.0 0 0.0 0.3 1.0 164
26/03/2020 22:50 2.1 87 0.0 0 0.0 0.0 0.0 0
26/03/2020 23:00 2.0 88 0.0 0 0.0 0.0 0.0 164
26/03/2020 23:10 1.8 89 0.0 0 0.0 0.1 0.2 248
26/03/2020 23:20 1.6 89 0.0 0 0.0 0.2 0.8 342
26/03/2020 23:30 1.6 89 0.0 0 0.0 0.1 0.3 171
26/03/2020 23:40 1.5 89 0.0 0 0.0 0.2 0.8 267
26/03/2020 23:50 1.2 90 0.0 0 0.0 0.0 0.1 160
Anterior Página 1 de 1 Siguiente

NOTA: Tipo de datos según el color:
   - Valores diarios o 10 minutos correctos
   - Valores diarios calculados a partir de un número de datos 10 minutos menor que 144 y mayor que 120, o de un número de datos semihorarios menor que 48 y mayor que 40 (caso de las estaciones de INTIA y del Ministerio)
   - Valores diez minutos estimados


Contacto        Enlaces        Aviso legal